Time;durP1;ratioP1;P1;durP2;ratioP2;P2;SDS_P1;SDS_P2;PMS_P1;PMS_P2;Temp;Humidity;BMP_temperature;BMP_pressure;BME280_temperature;BME280_humidity;BME280_pressure;Samples;Min_cycle;Max_cycle;Signal;HPM_P1;HPM_P2
2021/09/21 00:00:45;;;;;;;2.90;1.83;;;12.30;64.60;;;;;;5031886;28;20155;-80
2021/09/21 00:03:10;;;;;;;2.83;2.00;;;12.20;65.30;;;;;;5031793;28;20067;-80
2021/09/21 00:05:37;;;;;;;2.30;2.00;;;12.20;64.90;;;;;;5031908;28;20032;-79
2021/09/21 00:08:03;;;;;;;2.13;1.85;;;12.10;65.00;;;;;;5007703;28;20082;-80
2021/09/21 00:10:29;;;;;;;3.05;2.00;;;12.00;65.20;;;;;;5031451;28;20029;-80
2021/09/21 00:12:55;;;;;;;2.70;2.00;;;12.00;65.40;;;;;;5031787;28;20048;-80
2021/09/21 00:15:21;;;;;;;2.63;2.17;;;11.90;65.60;;;;;;5030697;28;20108;-81
2021/09/21 00:17:48;;;;;;;2.50;2.15;;;11.90;65.80;;;;;;5031595;28;20487;-81
2021/09/21 00:20:14;;;;;;;2.47;2.00;;;11.80;65.90;;;;;;5009767;28;20507;-81
2021/09/21 00:22:41;;;;;;;2.22;1.92;;;11.80;66.00;;;;;;5031330;28;20067;-81
2021/09/21 00:25:07;;;;;;;2.28;1.88;;;11.80;66.00;;;;;;5031679;28;20034;-80
2021/09/21 00:27:33;;;;;;;3.35;2.00;;;11.80;66.10;;;;;;5031805;28;20029;-80
2021/09/21 00:29:59;;;;;;;2.85;2.00;;;11.80;66.10;;;;;;5031670;28;20047;-82
2021/09/21 00:32:26;;;;;;;2.40;2.20;;;11.80;66.10;;;;;;5014283;28;20017;-81
2021/09/21 00:34:53;;;;;;;3.15;2.60;;;11.80;66.10;;;;;;5014154;28;20083;-81
2021/09/21 00:37:19;;;;;;;2.33;2.13;;;11.80;66.20;;;;;;5013710;28;20151;-82
2021/09/21 00:39:46;;;;;;;4.90;2.63;;;11.80;66.20;;;;;;5031935;28;20033;-82
2021/09/21 00:42:14;;;;;;;4.05;2.35;;;11.80;66.30;;;;;;5014389;28;20049;-83
2021/09/21 00:44:40;;;;;;;3.22;2.60;;;11.80;66.30;;;;;;5032033;28;20025;-83
2021/09/21 00:47:08;;;;;;;4.13;2.50;;;11.70;66.40;;;;;;5031062;28;20483;-83
2021/09/21 00:49:35;;;;;;;2.28;2.08;;;11.70;66.70;;;;;;5031771;28;20033;-83
2021/09/21 00:52:01;;;;;;;2.40;1.95;;;11.60;66.70;;;;;;5020712;28;20472;-83
2021/09/21 00:54:27;;;;;;;2.90;2.45;;;11.60;66.80;;;;;;5022130;28;20079;-83
2021/09/21 00:56:55;;;;;;;3.78;2.17;;;11.50;66.90;;;;;;5025176;28;20022;-83
2021/09/21 00:59:21;;;;;;;2.85;2.38;;;11.50;67.00;;;;;;5029250;28;20029;-80
2021/09/21 01:01:47;;;;;;;2.60;2.40;;;11.50;67.20;;;;;;5030741;28;20178;-80
2021/09/21 01:04:14;;;;;;;3.28;2.60;;;11.40;67.20;;;;;;5012888;28;20116;-80
2021/09/21 01:06:39;;;;;;;2.80;2.42;;;11.40;67.40;;;;;;5031295;28;20033;-80
2021/09/21 01:09:20;;;;;;;3.35;2.78;;;11.30;67.50;;;;;;5020877;28;20075;-80
2021/09/21 01:11:48;;;;;;;2.67;2.30;;;11.30;67.90;;;;;;5012939;28;20025;-80
2021/09/21 01:14:14;;;;;;;2.72;2.40;;;11.20;67.90;;;;;;5030684;28;20034;-80
2021/09/21 01:16:39;;;;;;;3.05;2.40;;;11.30;68.10;;;;;;5031243;28;20018;-81
2021/09/21 01:19:05;;;;;;;4.03;2.78;;;11.20;68.00;;;;;;5030006;28;20486;-82
2021/09/21 01:21:30;;;;;;;3.80;2.70;;;11.20;68.10;;;;;;5030546;28;20400;-81
2021/09/21 01:23:56;;;;;;;3.60;2.53;;;11.20;68.10;;;;;;5031181;28;20045;-81
2021/09/21 01:26:23;;;;;;;4.43;2.53;;;11.20;68.10;;;;;;5031194;28;20033;-80
2021/09/21 01:28:50;;;;;;;4.03;2.22;;;11.20;68.10;;;;;;5028463;28;20026;-81
2021/09/21 01:31:16;;;;;;;3.78;2.50;;;11.30;68.10;;;;;;5027753;28;20511;-82
2021/09/21 01:33:44;;;;;;;3.25;2.50;;;11.30;68.00;;;;;;5030013;28;20033;-82
2021/09/21 01:36:12;;;;;;;2.72;2.20;;;11.30;67.90;;;;;;5029852;28;20026;-82
2021/09/21 01:38:38;;;;;;;3.70;2.25;;;11.40;67.90;;;;;;5029933;28;20183;-81
2021/09/21 01:41:03;;;;;;;2.58;2.08;;;11.40;67.80;;;;;;5031052;28;20141;-82
2021/09/21 01:43:29;;;;;;;2.97;2.30;;;11.40;67.80;;;;;;5031164;28;20357;-82
2021/09/21 01:45:54;;;;;;;3.05;2.30;;;11.50;67.80;;;;;;5031180;28;20211;-82
2021/09/21 01:48:20;;;;;;;2.65;2.22;;;11.50;67.70;;;;;;5026548;28;20112;-82
2021/09/21 01:58:46;;;;;;;3.85;2.40;;;11.50;67.60;;;;;;5030252;28;20029;-82
2021/09/21 02:01:05;;;;;;;2.45;2.10;;;11.50;67.60;;;;;;5029879;28;20038;-82
2021/09/21 02:03:30;;;;;;;2.30;1.92;;;11.50;67.60;;;;;;5030271;28;20021;-81
2021/09/21 02:05:56;;;;;;;2.58;2.22;;;11.50;67.70;;;;;;5025814;28;20071;-82
2021/09/21 02:08:21;;;;;;;3.53;2.00;;;11.50;67.70;;;;;;5008660;28;20022;-81
2021/09/21 02:10:47;;;;;;;2.28;1.98;;;11.60;67.70;;;;;;5030677;28;20033;-81
2021/09/21 02:13:13;;;;;;;2.85;2.25;;;11.50;68.30;;;;;;5034089;28;20227;-81
2021/09/21 02:15:38;;;;;;;2.53;2.20;;;11.50;67.70;;;;;;5033886;28;20087;-81
2021/09/21 02:18:05;;;;;;;2.67;2.22;;;11.50;67.70;;;;;;5031088;28;20023;-82
2021/09/21 02:20:31;;;;;;;3.08;2.33;;;11.50;67.70;;;;;;5020931;28;20021;-81
2021/09/21 02:22:57;;;;;;;3.97;2.33;;;11.50;67.90;;;;;;5052641;28;20047;-81
2021/09/21 02:25:22;;;;;;;3.05;2.20;;;11.50;68.00;;;;;;5054008;28;20053;-81
2021/09/21 02:27:48;;;;;;;2.28;2.05;;;11.50;68.00;;;;;;5050606;28;20070;-82
2021/09/21 02:30:13;;;;;;;2.40;2.08;;;11.40;68.10;;;;;;5034183;28;20026;-80
2021/09/21 02:32:40;;;;;;;4.10;2.28;;;11.40;68.20;;;;;;5033794;28;20033;-81
2021/09/21 02:35:06;;;;;;;4.43;2.40;;;11.40;68.20;;;;;;5034108;28;20062;-81
2021/09/21 02:37:32;;;;;;;3.13;2.00;;;11.40;68.30;;;;;;5033755;28;20029;-82
2021/09/21 02:39:57;;;;;;;2.97;2.05;;;11.40;68.30;;;;;;5033663;28;20036;-81
2021/09/21 02:42:23;;;;;;;3.97;2.47;;;11.40;68.40;;;;;;5016302;28;20072;-82
2021/09/21 02:44:49;;;;;;;3.50;2.45;;;11.30;68.40;;;;;;5033655;28;20033;-82
2021/09/21 02:47:14;;;;;;;3.17;2.28;;;11.30;68.50;;;;;;5033787;28;20026;-81
2021/09/21 02:49:40;;;;;;;2.67;2.30;;;11.20;68.60;;;;;;5033177;28;20439;-82
2021/09/21 02:52:06;;;;;;;3.38;2.28;;;11.20;68.80;;;;;;5033972;28;20491;-82
2021/09/21 02:54:31;;;;;;;4.43;2.05;;;11.20;68.80;;;;;;5034087;28;20026;-81
2021/09/21 02:56:57;;;;;;;2.35;2.03;;;11.20;68.90;;;;;;5015475;28;20032;-81
2021/09/21 02:59:22;;;;;;;3.10;2.50;;;11.20;69.00;;;;;;5033913;28;20029;-81
2021/09/21 03:01:49;;;;;;;3.20;2.22;;;11.20;69.10;;;;;;5033399;28;20036;-81
2021/09/21 03:04:21;;;;;;;3.58;2.42;;;11.10;69.10;;;;;;5015821;28;20017;-80
2021/09/21 03:06:51;;;;;;;3.38;2.58;;;11.10;69.30;;;;;;5033011;28;20040;-80
2021/09/21 03:12:15;;;;;;;4.03;2.78;;;11.00;69.60;;;;;;5033409;28;20060;-81
2021/09/21 03:17:26;;;;;;;3.25;2.58;;;10.90;69.90;;;;;;5033022;28;20490;-81
2021/09/21 03:20:01;;;;;;;2.40;2.20;;;10.90;70.00;;;;;;5015371;28;20029;-81
2021/09/21 03:22:27;;;;;;;3.13;2.60;;;10.80;70.00;;;;;;5031915;28;20514;-81
2021/09/21 03:24:54;;;;;;;3.63;2.13;;;10.90;70.00;;;;;;5032994;28;20660;-80
2021/09/21 03:27:20;;;;;;;3.80;2.65;;;10.90;70.00;;;;;;5015222;28;20038;-81
2021/09/21 03:29:46;;;;;;;3.30;2.67;;;10.90;69.90;;;;;;5033147;28;20033;-82
2021/09/21 03:32:12;;;;;;;3.45;2.60;;;10.90;70.00;;;;;;5032757;28;20049;-82
2021/09/21 03:34:38;;;;;;;3.15;2.40;;;10.90;70.00;;;;;;5033056;28;20491;-81
2021/09/21 03:37:08;;;;;;;3.30;2.50;;;11.00;70.00;;;;;;5032608;28;20029;-81
2021/09/21 03:39:34;;;;;;;3.58;2.80;;;11.00;70.00;;;;;;5033306;28;20033;-81
2021/09/21 03:41:59;;;;;;;3.92;2.92;;;10.90;70.60;;;;;;5032962;28;20063;-79
2021/09/21 03:44:28;;;;;;;2.85;2.38;;;10.90;70.00;;;;;;5032993;28;20021;-79
2021/09/21 03:46:54;;;;;;;3.33;2.75;;;11.00;70.00;;;;;;5014682;28;20040;-79
2021/09/21 03:49:21;;;;;;;3.58;2.70;;;11.00;70.00;;;;;;5032601;28;20030;-79
2021/09/21 03:51:47;;;;;;;2.95;2.40;;;10.90;70.00;;;;;;5032959;28;20025;-79
2021/09/21 03:54:13;;;;;;;3.00;2.50;;;11.00;70.00;;;;;;5014771;28;20502;-79
2021/09/21 03:56:39;;;;;;;3.92;2.80;;;11.00;70.00;;;;;;5014935;28;20031;-79
2021/09/21 03:59:06;;;;;;;3.35;2.20;;;11.00;70.10;;;;;;5032309;28;20526;-80
2021/09/21 04:01:32;;;;;;;3.08;2.50;;;11.00;70.10;;;;;;5032766;28;20022;-80
2021/09/21 04:03:58;;;;;;;2.85;2.50;;;10.90;70.20;;;;;;5032626;28;20469;-80
2021/09/21 04:06:24;;;;;;;3.30;2.47;;;11.00;70.20;;;;;;5032072;28;20064;-80
2021/09/21 04:08:50;;;;;;;4.78;2.70;;;11.00;70.20;;;;;;5014258;28;20053;-80
2021/09/21 04:11:16;;;;;;;3.53;2.65;;;11.00;70.10;;;;;;5032041;28;20025;-81
2021/09/21 04:13:42;;;;;;;4.03;2.70;;;11.10;70.10;;;;;;5032440;28;20075;-81
2021/09/21 04:16:07;;;;;;;3.55;2.80;;;11.10;70.10;;;;;;5014423;28;20024;-80
2021/09/21 04:18:33;;;;;;;3.15;2.35;;;11.10;70.10;;;;;;5031274;28;20026;-80
2021/09/21 04:20:58;;;;;;;4.28;2.80;;;11.10;70.10;;;;;;5026050;28;20462;-80
2021/09/21 04:23:24;;;;;;;3.15;2.55;;;11.10;70.90;;;;;;5017783;28;20022;-81
2021/09/21 04:25:49;;;;;;;4.43;2.58;;;11.00;70.30;;;;;;5040188;28;20033;-80
2021/09/21 04:28:16;;;;;;;2.95;2.42;;;11.00;70.30;;;;;;5024265;28;20028;-80
2021/09/21 04:30:43;;;;;;;2.85;2.50;;;11.00;70.40;;;;;;5030706;28;20136;-81
2021/09/21 04:33:09;;;;;;;3.35;2.58;;;11.00;70.50;;;;;;5031131;28;20087;-80
2021/09/21 04:35:37;;;;;;;4.03;2.70;;;11.00;70.50;;;;;;5031521;28;20076;-81
2021/09/21 04:38:02;;;;;;;4.07;2.75;;;11.00;70.60;;;;;;5029669;28;20041;-81
2021/09/21 04:40:28;;;;;;;5.00;3.00;;;11.00;70.70;;;;;;5030770;28;20364;-81
2021/09/21 04:42:53;;;;;;;4.63;3.20;;;11.00;70.90;;;;;;5031215;28;20018;-82
2021/09/21 04:45:19;;;;;;;4.10;2.95;;;11.00;70.90;;;;;;5030076;28;20707;-81
2021/09/21 04:47:45;;;;;;;4.35;2.88;;;11.10;70.90;;;;;;5030362;28;20032;-81
2021/09/21 04:50:10;;;;;;;3.30;2.67;;;11.10;70.80;;;;;;5030569;28;20036;-82
2021/09/21 04:52:36;;;;;;;4.20;3.10;;;11.20;70.80;;;;;;5027473;28;20028;-81
2021/09/21 04:55:02;;;;;;;3.95;2.67;;;11.20;70.70;;;;;;5032463;28;20074;-81
2021/09/21 04:57:28;;;;;;;3.85;2.83;;;11.20;70.60;;;;;;5013479;28;20384;-80
2021/09/21 04:59:53;;;;;;;4.85;3.10;;;11.30;70.70;;;;;;5013459;28;20033;-80
2021/09/21 05:02:19;;;;;;;3.50;2.88;;;11.30;70.70;;;;;;5013211;28;20029;-80
2021/09/21 05:04:44;;;;;;;3.15;2.65;;;11.30;70.60;;;;;;5031399;28;20123;-80
2021/09/21 05:07:10;;;;;;;3.22;2.78;;;11.40;70.60;;;;;;5030801;28;20041;-80
2021/09/21 05:09:35;;;;;;;3.38;2.85;;;11.50;70.50;;;;;;5031340;28;20105;-80
2021/09/21 05:12:01;;;;;;;2.90;2.60;;;11.50;70.50;;;;;;5013622;28;20066;-81
2021/09/21 05:14:26;;;;;;;3.97;2.58;;;11.50;70.40;;;;;;5031371;28;20029;-80
2021/09/21 05:16:52;;;;;;;3.75;2.97;;;11.60;70.40;;;;;;5037313;28;20103;-80
2021/09/21 05:19:17;;;;;;;4.05;2.55;;;11.60;70.40;;;;;;5051342;28;20061;-80
2021/09/21 05:21:43;;;;;;;2.83;2.50;;;11.60;70.30;;;;;;5042474;28;20113;-82
2021/09/21 05:24:10;;;;;;;3.92;2.95;;;11.70;70.40;;;;;;5031406;28;20017;-81
2021/09/21 05:26:36;;;;;;;3.05;2.38;;;11.70;70.30;;;;;;5013853;28;20029;-81
2021/09/21 05:29:02;;;;;;;3.03;2.33;;;11.70;70.30;;;;;;5030135;28;20025;-80
2021/09/21 05:31:27;;;;;;;3.28;2.65;;;11.80;70.30;;;;;;5013179;28;20417;-80
2021/09/21 05:33:53;;;;;;;3.28;2.40;;;11.80;70.30;;;;;;5031306;28;20044;-77
2021/09/21 05:36:18;;;;;;;4.03;2.75;;;11.90;70.30;;;;;;5038601;28;20033;-77
2021/09/21 05:38:44;;;;;;;4.13;2.97;;;11.90;70.30;;;;;;5040498;28;20459;-76
2021/09/21 05:41:09;;;;;;;3.58;2.47;;;11.90;70.30;;;;;;5039351;28;20083;-77
2021/09/21 05:43:35;;;;;;;4.30;2.83;;;11.90;70.40;;;;;;5039138;28;20017;-77
2021/09/21 05:46:01;;;;;;;3.40;2.90;;;12.00;71.00;;;;;;5041798;28;20435;-76
2021/09/21 05:48:26;;;;;;;4.20;2.80;;;12.00;70.30;;;;;;5048795;28;20029;-78
2021/09/21 05:50:52;;;;;;;3.65;2.50;;;12.00;70.30;;;;;;5045898;28;20441;-82
2021/09/21 05:53:17;;;;;;;3.40;2.33;;;12.10;70.30;;;;;;5045882;28;20025;-82
2021/09/21 05:55:43;;;;;;;2.65;2.33;;;12.10;70.30;;;;;;5054914;28;20321;-81
2021/09/21 05:58:10;;;;;;;3.08;2.47;;;12.20;70.40;;;;;;5034701;28;20535;-81
2021/09/21 06:00:36;;;;;;;2.90;2.30;;;12.20;70.40;;;;;;5015601;28;20502;-81
2021/09/21 06:03:02;;;;;;;3.30;2.50;;;12.30;70.30;;;;;;5018837;28;20479;-81
2021/09/21 06:05:27;;;;;;;3.00;2.30;;;12.30;70.10;;;;;;5040399;28;20090;-81
2021/09/21 06:07:54;;;;;;;3.30;2.50;;;12.30;70.10;;;;;;5020746;28;20116;-81
2021/09/21 06:10:21;;;;;;;3.47;2.30;;;12.40;70.20;;;;;;5043531;28;20236;-80
2021/09/21 06:12:47;;;;;;;2.80;2.25;;;12.40;70.20;;;;;;5039706;28;20951;-79
2021/09/21 06:15:15;;;;;;;2.83;2.08;;;12.40;70.20;;;;;;5040720;28;20105;-77
2021/09/21 06:17:41;;;;;;;3.33;2.35;;;12.50;70.30;;;;;;5045086;28;20025;-79
2021/09/21 06:20:09;;;;;;;2.38;2.10;;;12.50;70.10;;;;;;5040300;28;20025;-78
2021/09/21 06:22:40;;;;;;;2.58;2.33;;;12.60;70.50;;;;;;5020860;28;20028;-79
2021/09/21 06:25:07;;;;;;;4.10;2.42;;;12.70;70.00;;;;;;5040407;28;20017;-79
2021/09/21 06:27:34;;;;;;;3.08;2.60;;;12.70;69.90;;;;;;5043378;28;20028;-86
2021/09/21 06:30:01;;;;;;;3.03;2.40;;;12.80;69.80;;;;;;5024506;28;20361;-82
2021/09/21 06:32:27;;;;;;;2.67;2.10;;;12.90;69.90;;;;;;5024484;28;20028;-80
2021/09/21 06:34:53;;;;;;;3.88;2.17;;;12.90;69.90;;;;;;5036981;28;20018;-80
2021/09/21 06:37:18;;;;;;;2.72;2.15;;;13.00;70.00;;;;;;5021564;28;20029;-79
2021/09/21 06:39:44;;;;;;;3.03;2.17;;;13.00;70.00;;;;;;5032537;28;20392;-79
2021/09/21 06:42:09;;;;;;;2.75;2.10;;;13.00;69.90;;;;;;5038630;28;20475;-79
2021/09/21 06:44:35;;;;;;;2.78;2.10;;;13.10;70.00;;;;;;5039035;28;20040;-79
2021/09/21 06:47:00;;;;;;;3.55;2.20;;;13.20;69.90;;;;;;5034035;28;20033;-80
2021/09/21 06:49:26;;;;;;;3.85;2.50;;;13.30;69.80;;;;;;5010897;28;20483;-79
2021/09/21 06:51:52;;;;;;;3.90;2.67;;;13.30;69.70;;;;;;5029759;28;20055;-79
2021/09/21 06:54:17;;;;;;;2.63;2.17;;;13.40;69.60;;;;;;5038077;28;20376;-77
2021/09/21 06:56:43;;;;;;;2.72;2.28;;;13.50;69.60;;;;;;5039034;28;20033;-78
2021/09/21 06:59:08;;;;;;;2.85;2.28;;;13.60;69.50;;;;;;5038459;28;20480;-77
2021/09/21 07:01:34;;;;;;;3.60;2.50;;;13.70;69.50;;;;;;5031278;28;20037;-77
2021/09/21 07:03:59;;;;;;;3.75;2.55;;;13.70;69.50;;;;;;5006938;28;20017;-77
2021/09/21 07:06:25;;;;;;;3.95;2.70;;;13.80;69.50;;;;;;5031270;28;20116;-77
2021/09/21 07:08:50;;;;;;;2.55;2.33;;;13.90;69.30;;;;;;5013308;28;20438;-76
2021/09/21 07:11:16;;;;;;;4.82;2.47;;;14.00;69.10;;;;;;5013449;28;20124;-77
2021/09/21 07:13:42;;;;;;;2.28;2.08;;;14.10;68.80;;;;;;5032545;28;20116;-78
2021/09/21 07:16:07;;;;;;;2.25;1.98;;;14.20;68.60;;;;;;5031666;28;20033;-78
2021/09/21 07:18:33;;;;;;;2.92;2.17;;;14.30;68.40;;;;;;5031172;28;20028;-78
2021/09/21 07:20:59;;;;;;;2.15;1.95;;;14.40;68.20;;;;;;5030689;28;20048;-76
2021/09/21 07:23:24;;;;;;;2.58;2.03;;;14.40;68.10;;;;;;5030895;28;20107;-75
2021/09/21 07:25:50;;;;;;;2.35;1.90;;;14.50;67.90;;;;;;5021478;28;20499;-76
2021/09/21 07:28:16;;;;;;;2.53;2.00;;;14.60;67.80;;;;;;5030480;28;20017;-75
2021/09/21 07:30:42;;;;;;;2.30;1.92;;;14.70;67.70;;;;;;5014563;28;20187;-75
2021/09/21 07:33:13;;;;;;;2.13;1.80;;;14.70;67.50;;;;;;5014508;28;20049;-77
2021/09/21 07:35:39;;;;;;;2.75;2.13;;;14.80;67.40;;;;;;5031530;28;20365;-75
2021/09/21 07:38:05;;;;;;;2.70;2.20;;;14.80;67.40;;;;;;5031852;28;20025;-77
2021/09/21 07:40:34;;;;;;;2.95;1.95;;;15.00;67.20;;;;;;5032484;28;20151;-77
2021/09/21 07:43:00;;;;;;;2.40;2.00;;;15.10;66.90;;;;;;5014380;28;20112;-77
2021/09/21 07:45:26;;;;;;;2.17;1.60;;;15.20;66.60;;;;;;5032172;28;20117;-77
2021/09/21 07:47:52;;;;;;;2.03;1.70;;;15.30;66.20;;;;;;5030946;28;20524;-77
2021/09/21 07:50:18;;;;;;;2.72;1.70;;;15.40;65.80;;;;;;5013735;28;20037;-77
2021/09/21 07:52:44;;;;;;;2.75;1.67;;;15.50;65.60;;;;;;5026326;28;20025;-75
2021/09/21 07:55:09;;;;;;;2.10;1.70;;;15.50;65.30;;;;;;5026164;28;20475;-77
2021/09/21 07:57:38;;;;;;;3.28;2.00;;;15.60;65.20;;;;;;5022478;28;20408;-77
2021/09/21 08:00:06;;;;;;;2.00;1.80;;;15.70;65.00;;;;;;5037838;28;20041;-77
2021/09/21 08:02:31;;;;;;;2.35;1.50;;;15.80;64.80;;;;;;5002151;28;20449;-77
2021/09/21 08:04:57;;;;;;;1.90;1.58;;;15.90;64.50;;;;;;5030160;28;20108;-75
2021/09/21 08:07:22;;;;;;;2.15;1.30;;;16.00;64.20;;;;;;5027877;28;20706;-77
2021/09/21 08:09:48;;;;;;;2.17;1.50;;;16.10;63.90;;;;;;5029942;28;20017;-77
2021/09/21 08:12:14;;;;;;;1.65;1.10;;;16.10;63.60;;;;;;5010969;28;20116;-75
2021/09/21 08:14:39;;;;;;;1.55;1.42;;;16.20;63.20;;;;;;5028343;28;20060;-77
2021/09/21 08:17:07;;;;;;;1.20;1.10;;;16.30;63.00;;;;;;5029917;28;20048;-77
2021/09/21 08:19:33;;;;;;;1.23;1.13;;;16.40;62.60;;;;;;5031220;28;20397;-76
2021/09/21 08:21:59;;;;;;;1.52;1.33;;;16.50;62.20;;;;;;5031370;28;20383;-76
2021/09/21 08:24:25;;;;;;;2.63;1.13;;;16.60;61.60;;;;;;5031182;28;20104;-77
2021/09/21 08:26:51;;;;;;;1.33;1.23;;;16.70;61.00;;;;;;5029211;28;20447;-75
2021/09/21 08:29:16;;;;;;;1.45;1.30;;;16.80;60.80;;;;;;5029888;28;20029;-77
2021/09/21 08:31:42;;;;;;;1.75;1.17;;;16.80;60.30;;;;;;5030412;28;20380;-77
2021/09/21 08:34:07;;;;;;;1.08;0.98;;;16.90;60.10;;;;;;5030770;28;20021;-77
2021/09/21 08:36:36;;;;;;;1.30;1.13;;;16.90;59.50;;;;;;5024578;28;20473;-77
2021/09/21 08:39:03;;;;;;;1.40;1.05;;;16.90;58.60;;;;;;5024758;28;20366;-76
2021/09/21 08:41:30;;;;;;;1.48;1.30;;;16.90;58.30;;;;;;5023529;28;20040;-78
2021/09/21 08:43:55;;;;;;;1.30;1.20;;;17.00;57.80;;;;;;5027782;28;20104;-75
2021/09/21 08:46:22;;;;;;;1.05;0.95;;;17.00;57.60;;;;;;5029676;28;20460;-76
2021/09/21 08:48:48;;;;;;;1.27;0.80;;;17.10;57.50;;;;;;5032018;28;20108;-74
2021/09/21 08:51:14;;;;;;;1.10;1.00;;;17.10;57.20;;;;;;5033817;28;20033;-75
2021/09/21 08:53:39;;;;;;;1.20;0.80;;;17.20;56.90;;;;;;5029403;28;20076;-77
2021/09/21 08:56:06;;;;;;;0.82;0.82;;;17.20;56.50;;;;;;5033330;28;20028;-77
2021/09/21 08:58:32;;;;;;;1.00;0.90;;;17.30;56.10;;;;;;5036870;28;20032;-78
2021/09/21 09:01:15;;;;;;;0.80;0.80;;;17.40;55.70;;;;;;5014033;28;20569;-77
2021/09/21 09:03:51;;;;;;;0.80;0.80;;;17.40;55.40;;;;;;5036526;28;20099;-77
2021/09/21 09:06:16;;;;;;;1.20;1.05;;;17.50;55.10;;;;;;5036117;28;20065;-76
2021/09/21 09:08:43;;;;;;;1.02;1.00;;;17.50;54.60;;;;;;5027844;28;20045;-75
2021/09/21 09:11:16;;;;;;;1.08;0.80;;;17.60;54.80;;;;;;5030617;28;20425;-76
2021/09/21 09:13:43;;;;;;;0.70;0.70;;;17.60;54.80;;;;;;5020932;28;20061;-77
2021/09/21 09:16:14;;;;;;;2.08;0.93;;;17.60;54.70;;;;;;5034285;28;20036;-76
2021/09/21 09:18:41;;;;;;;0.95;0.80;;;17.70;54.40;;;;;;5028196;28;20029;-77
2021/09/21 09:21:08;;;;;;;1.63;1.08;;;17.80;54.50;;;;;;5029597;28;20025;-77
2021/09/21 09:23:33;;;;;;;1.08;0.98;;;17.70;54.00;;;;;;5029693;28;20095;-79
2021/09/21 09:25:59;;;;;;;1.08;0.70;;;17.80;54.10;;;;;;5023124;28;20034;-77
2021/09/21 09:28:26;;;;;;;1.80;0.88;;;17.90;54.20;;;;;;5027340;28;20052;-77
2021/09/21 09:30:54;;;;;;;0.95;0.93;;;18.00;53.70;;;;;;5027780;28;20416;-78
2021/09/21 09:33:22;;;;;;;0.80;0.80;;;18.00;53.20;;;;;;5029412;28;20041;-78
2021/09/21 09:35:50;;;;;;;0.95;0.85;;;18.00;53.10;;;;;;5026164;28;20087;-77
2021/09/21 09:38:21;;;;;;;0.93;0.90;;;18.10;52.90;;;;;;5026891;28;20045;-77
2021/09/21 09:40:57;;;;;;;1.05;0.90;;;18.10;52.70;;;;;;5030603;28;20029;-78
2021/09/21 09:43:27;;;;;;;1.17;0.90;;;18.20;52.30;;;;;;5028318;28;20024;-76
2021/09/21 09:45:55;;;;;;;1.30;1.10;;;18.20;52.00;;;;;;5028440;28;20442;-76
2021/09/21 09:48:23;;;;;;;1.00;0.90;;;18.20;51.40;;;;;;5040107;28;20096;-77
2021/09/21 09:50:52;;;;;;;1.05;0.90;;;18.20;51.70;;;;;;5037486;28;20120;-76
2021/09/21 09:53:20;;;;;;;2.35;1.42;;;18.30;51.70;;;;;;5036324;28;20064;-78
2021/09/21 09:55:47;;;;;;;1.67;1.10;;;18.20;50.30;;;;;;5035448;28;20038;-77
2021/09/21 09:58:14;;;;;;;1.13;0.85;;;18.20;50.30;;;;;;5036390;28;20063;-77
2021/09/21 10:00:40;;;;;;;1.52;1.00;;;18.20;50.70;;;;;;5034984;28;20025;-78
2021/09/21 10:03:08;;;;;;;1.52;1.02;;;18.30;50.70;;;;;;5038169;28;20535;-77
2021/09/21 10:05:36;;;;;;;0.90;0.90;;;18.30;50.70;;;;;;5038164;28;20537;-78
2021/09/21 10:08:02;;;;;;;1.15;1.05;;;18.30;50.80;;;;;;5019326;28;20029;-76
2021/09/21 10:10:29;;;;;;;0.98;0.88;;;18.30;50.90;;;;;;5028533;28;20021;-77
2021/09/21 10:12:58;;;;;;;0.95;0.80;;;18.40;50.90;;;;;;5029473;28;20109;-77
2021/09/21 10:15:26;;;;;;;1.85;1.30;;;18.40;51.00;;;;;;5029840;28;20499;-77
2021/09/21 10:18:02;;;;;;;1.42;1.17;;;18.50;50.90;;;;;;5029277;28;20037;-77
2021/09/21 10:20:37;;;;;;;2.03;1.30;;;18.50;51.30;;;;;;5026278;28;20091;-77
2021/09/21 10:23:09;;;;;;;1.05;0.95;;;18.50;51.60;;;;;;5026163;28;20122;-78
2021/09/21 10:25:38;;;;;;;2.40;1.70;;;18.60;51.70;;;;;;5011725;28;20036;-77
2021/09/21 10:28:18;;;;;;;1.10;1.00;;;18.60;51.60;;;;;;5035014;28;20574;-77
2021/09/21 10:30:58;;;;;;;2.10;1.20;;;18.60;51.90;;;;;;5035946;28;20056;-77
2021/09/21 10:33:28;;;;;;;1.48;1.35;;;18.60;51.80;;;;;;5039096;28;20041;-77
2021/09/21 10:35:54;;;;;;;1.92;1.50;;;18.60;51.20;;;;;;5024139;28;20025;-77
2021/09/21 10:38:21;;;;;;;1.52;1.20;;;18.60;51.20;;;;;;5039274;28;20028;-78
2021/09/21 10:40:50;;;;;;;1.30;1.20;;;18.70;51.20;;;;;;5021945;28;20033;-77
2021/09/21 10:43:30;;;;;;;1.65;1.30;;;18.70;51.00;;;;;;5040558;28;20029;-77
2021/09/21 10:46:13;;;;;;;1.33;1.20;;;18.80;50.90;;;;;;5039673;28;20072;-78
2021/09/21 10:48:41;;;;;;;1.35;1.20;;;18.80;50.70;;;;;;5040311;28;20064;-77
2021/09/21 10:51:08;;;;;;;1.10;1.00;;;18.80;50.80;;;;;;5039105;28;20033;-77
2021/09/21 10:53:34;;;;;;;1.42;1.10;;;18.90;50.80;;;;;;5020470;28;20316;-77
2021/09/21 10:56:06;;;;;;;1.80;1.20;;;18.90;50.70;;;;;;5032241;28;20125;-78
2021/09/21 10:58:32;;;;;;;;;;;18.90;50.30;;;;;;5015459;28;20074;-77
2021/09/21 11:00:58;;;;;;;1.70;1.30;;;18.90;49.50;;;;;;5033493;28;19913;-78
2021/09/21 11:03:27;;;;;;;1.63;1.02;;;18.90;49.50;;;;;;5035464;28;20036;-77
2021/09/21 11:06:00;;;;;;;1.63;1.17;;;19.00;49.70;;;;;;5035737;28;20030;-76
2021/09/21 11:08:30;;;;;;;2.03;1.60;;;19.10;49.00;;;;;;5032222;28;20040;-77
2021/09/21 11:11:00;;;;;;;3.42;2.15;;;19.10;47.80;;;;;;5025422;28;20022;-77
2021/09/21 11:13:31;;;;;;;2.22;1.40;;;18.90;46.50;;;;;;5032017;28;20052;-77
2021/09/21 11:15:58;;;;;;;1.70;1.58;;;18.90;47.40;;;;;;5026805;28;20476;-78
2021/09/21 11:18:24;;;;;;;1.90;1.60;;;18.90;47.00;;;;;;5031947;28;20029;-76
2021/09/21 11:20:57;;;;;;;2.10;1.67;;;18.80;46.90;;;;;;5032553;28;20071;-77
2021/09/21 11:23:34;;;;;;;1.10;1.00;;;19.00;47.40;;;;;;5022910;28;20033;-77
2021/09/21 11:26:07;;;;;;;3.08;1.90;;;19.20;47.60;;;;;;5034187;28;20033;-77
2021/09/21 11:28:33;;;;;;;;;;;19.20;47.80;;;;;;5012015;28;20427;-77
2021/09/21 11:31:01;;;;;;;1.85;1.55;;;19.20;46.90;;;;;;5038314;28;19958;-77
2021/09/21 11:33:29;;;;;;;1.70;1.48;;;19.30;47.50;;;;;;5029930;28;20204;-77
2021/09/21 11:36:07;;;;;;;2.25;1.40;;;19.50;47.60;;;;;;5035133;28;20033;-77
2021/09/21 11:38:39;;;;;;;2.13;1.88;;;19.70;47.90;;;;;;5028659;28;20124;-76
2021/09/21 11:41:05;;;;;;;1.98;1.50;;;19.80;47.80;;;;;;5032682;28;20021;-77
2021/09/21 11:43:30;;;;;;;1.85;1.27;;;20.00;47.80;;;;;;5033335;28;20337;-77
2021/09/21 11:45:57;;;;;;;2.40;1.50;;;20.00;47.80;;;;;;5040304;28;20112;-78
2021/09/21 11:48:23;;;;;;;1.88;1.40;;;20.10;46.70;;;;;;5035398;28;20052;-78
2021/09/21 11:50:49;;;;;;;1.45;1.35;;;20.20;46.80;;;;;;5014649;28;20021;-78
2021/09/21 11:53:20;;;;;;;1.40;1.30;;;20.20;46.90;;;;;;5035594;28;20071;-78
2021/09/21 11:55:47;;;;;;;1.95;1.40;;;20.30;46.70;;;;;;5032207;28;20044;-82
2021/09/21 11:58:14;;;;;;;1.90;1.40;;;20.30;46.50;;;;;;5037010;28;20511;-80
2021/09/21 12:00:46;;;;;;;2.05;1.20;;;20.40;46.40;;;;;;5022300;28;20025;-81
2021/09/21 12:03:14;;;;;;;1.20;1.00;;;20.40;46.50;;;;;;5039484;28;20029;-77
2021/09/21 12:05:42;;;;;;;1.67;1.33;;;20.60;46.80;;;;;;5032731;28;20306;-76
2021/09/21 12:08:20;;;;;;;1.95;1.23;;;20.70;46.30;;;;;;5038159;28;20098;-78
2021/09/21 12:10:54;;;;;;;2.42;1.85;;;20.90;46.40;;;;;;5035462;28;20029;-76
2021/09/21 12:13:23;;;;;;;3.03;2.40;;;21.00;45.50;;;;;;5022601;28;20133;-77
2021/09/21 12:15:55;;;;;;;2.22;1.40;;;20.80;44.10;;;;;;5032379;28;20153;-77
2021/09/21 12:18:23;;;;;;;1.45;1.17;;;20.70;45.70;;;;;;5031136;28;20029;-80
2021/09/21 12:20:58;;;;;;;1.48;1.00;;;20.80;45.50;;;;;;5038388;28;20021;-78
2021/09/21 12:23:30;;;;;;;1.38;1.20;;;21.00;45.70;;;;;;5041636;28;20033;-79
2021/09/21 12:25:58;;;;;;;1.67;1.58;;;21.00;45.80;;;;;;5036012;28;20033;-81
2021/09/21 12:28:32;;;;;;;2.45;1.58;;;21.00;45.00;;;;;;5039899;28;20029;-79
2021/09/21 12:31:05;;;;;;;1.60;1.30;;;20.90;45.20;;;;;;5036855;28;20033;-80
2021/09/21 12:33:35;;;;;;;1.40;1.10;;;21.00;45.30;;;;;;5022281;28;20033;-77
2021/09/21 12:36:00;;;;;;;2.45;1.20;;;21.00;45.40;;;;;;5035217;28;20060;-78
2021/09/21 12:38:26;;;;;;;1.75;1.33;;;21.10;45.60;;;;;;5039699;28;20496;-79
2021/09/21 12:41:04;;;;;;;2.00;1.30;;;21.10;45.80;;;;;;5038473;28;20460;-77
2021/09/21 12:43:32;;;;;;;1.60;1.30;;;21.10;45.60;;;;;;5035970;28;20104;-77
2021/09/21 12:46:04;;;;;;;1.00;1.00;;;21.20;45.70;;;;;;5033856;28;20036;-78
2021/09/21 12:48:33;;;;;;;1.48;1.17;;;21.20;45.80;;;;;;5025482;28;20035;-78
2021/09/21 12:51:03;;;;;;;1.85;1.20;;;21.10;45.90;;;;;;5017056;28;20029;-78
2021/09/21 12:53:28;;;;;;;1.50;1.40;;;21.20;45.90;;;;;;5040376;28;20128;-78
2021/09/21 12:56:06;;;;;;;1.30;1.00;;;21.30;46.10;;;;;;5042560;28;20112;-78
2021/09/21 12:58:38;;;;;;;1.60;1.30;;;21.20;45.90;;;;;;5036204;28;20025;-78
2021/09/21 13:01:09;;;;;;;1.40;1.27;;;21.30;46.20;;;;;;5035920;28;20056;-78